sensor_id;sensor_type;location;lat;lon;timestamp;temperature;humidity
71563;DHT22;59391;52.504;13.438;2024-01-15T00:02:06;4.50;67.90
71563;DHT22;59391;52.504;13.438;2024-01-15T00:04:36;4.50;67.70
71563;DHT22;59391;52.504;13.438;2024-01-15T00:07:06;4.40;68.00
71563;DHT22;59391;52.504;13.438;2024-01-15T00:09:32;4.40;68.70
71563;DHT22;59391;52.504;13.438;2024-01-15T00:11:59;4.40;68.20
71563;DHT22;59391;52.504;13.438;2024-01-15T00:14:26;4.40;68.80
71563;DHT22;59391;52.504;13.438;2024-01-15T00:16:52;4.30;68.90
71563;DHT22;59391;52.504;13.438;2024-01-15T00:19:23;4.30;68.70
71563;DHT22;59391;52.504;13.438;2024-01-15T00:21:49;4.30;68.70
71563;DHT22;59391;52.504;13.438;2024-01-15T00:24:15;4.30;68.80
71563;DHT22;59391;52.504;13.438;2024-01-15T00:26:40;4.20;69.20
71563;DHT22;59391;52.504;13.438;2024-01-15T00:29:07;4.20;69.40
71563;DHT22;59391;52.504;13.438;2024-01-15T00:31:33;4.20;69.00
71563;DHT22;59391;52.504;13.438;2024-01-15T00:33:59;4.20;68.70
71563;DHT22;59391;52.504;13.438;2024-01-15T00:36:25;4.10;69.00
71563;DHT22;59391;52.504;13.438;2024-01-15T00:38:52;4.10;68.80
71563;DHT22;59391;52.504;13.438;2024-01-15T00:41:18;4.10;68.70
71563;DHT22;59391;52.504;13.438;2024-01-15T00:43:45;4.10;68.20
71563;DHT22;59391;52.504;13.438;2024-01-15T00:46:11;4.10;68.50
71563;DHT22;59391;52.504;13.438;2024-01-15T00:48:36;4.20;68.70
71563;DHT22;59391;52.504;13.438;2024-01-15T00:51:03;4.20;68.90
71563;DHT22;59391;52.504;13.438;2024-01-15T00:53:29;4.20;68.70
71563;DHT22;59391;52.504;13.438;2024-01-15T00:55:55;4.20;68.30
71563;DHT22;59391;52.504;13.438;2024-01-15T00:58:21;4.20;68.50
71563;DHT22;59391;52.504;13.438;2024-01-15T01:00:46;4.20;67.70
71563;DHT22;59391;52.504;13.438;2024-01-15T01:03:12;4.20;67.50
71563;DHT22;59391;52.504;13.438;2024-01-15T01:05:37;4.20;68.20
71563;DHT22;59391;52.504;13.438;2024-01-15T01:08:03;4.10;68.20
71563;DHT22;59391;52.504;13.438;2024-01-15T01:10:29;4.10;68.80
71563;DHT22;59391;52.504;13.438;2024-01-15T01:12:55;4.10;68.90
71563;DHT22;59391;52.504;13.438;2024-01-15T01:15:21;4.10;69.50
71563;DHT22;59391;52.504;13.438;2024-01-15T01:17:47;4.10;69.40
71563;DHT22;59391;52.504;13.438;2024-01-15T01:20:12;4.00;69.90
71563;DHT22;59391;52.504;13.438;2024-01-15T01:22:40;4.00;70.10
71563;DHT22;59391;52.504;13.438;2024-01-15T01:25:06;4.00;70.60
71563;DHT22;59391;52.504;13.438;2024-01-15T01:27:32;4.00;71.00
71563;DHT22;59391;52.504;13.438;2024-01-15T01:29:58;3.90;71.20
71563;DHT22;59391;52.504;13.438;2024-01-15T01:32:24;3.90;71.60
71563;DHT22;59391;52.504;13.438;2024-01-15T01:34:49;3.90;71.60
71563;DHT22;59391;52.504;13.438;2024-01-15T01:37:15;3.80;72.00
71563;DHT22;59391;52.504;13.438;2024-01-15T01:39:41;3.80;72.30
71563;DHT22;59391;52.504;13.438;2024-01-15T01:42:08;3.80;72.00
71563;DHT22;59391;52.504;13.438;2024-01-15T01:44:33;3.70;72.20
71563;DHT22;59391;52.504;13.438;2024-01-15T01:47:00;3.70;72.30
71563;DHT22;59391;52.504;13.438;2024-01-15T01:49:27;3.70;73.00
71563;DHT22;59391;52.504;13.438;2024-01-15T01:51:57;3.70;73.10
71563;DHT22;59391;52.504;13.438;2024-01-15T01:54:27;3.70;72.60
71563;DHT22;59391;52.504;13.438;2024-01-15T01:56:55;3.70;73.40
71563;DHT22;59391;52.504;13.438;2024-01-15T01:59:22;3.60;72.60
71563;DHT22;59391;52.504;13.438;2024-01-15T02:01:49;3.60;73.70
71563;DHT22;59391;52.504;13.438;2024-01-15T02:04:15;3.60;73.70
71563;DHT22;59391;52.504;13.438;2024-01-15T02:06:41;3.60;73.80
71563;DHT22;59391;52.504;13.438;2024-01-15T02:09:08;3.50;73.70
71563;DHT22;59391;52.504;13.438;2024-01-15T02:11:35;3.50;73.50
71563;DHT22;59391;52.504;13.438;2024-01-15T02:14:02;3.50;72.90
71563;DHT22;59391;52.504;13.438;2024-01-15T02:16:28;3.50;73.60
71563;DHT22;59391;52.504;13.438;2024-01-15T02:18:54;3.50;73.70
71563;DHT22;59391;52.504;13.438;2024-01-15T02:21:19;3.50;74.00
71563;DHT22;59391;52.504;13.438;2024-01-15T02:23:45;3.50;73.80
71563;DHT22;59391;52.504;13.438;2024-01-15T02:26:11;3.50;73.40
71563;DHT22;59391;52.504;13.438;2024-01-15T02:28:37;3.50;73.00
71563;DHT22;59391;52.504;13.438;2024-01-15T02:31:03;3.50;72.70
71563;DHT22;59391;52.504;13.438;2024-01-15T02:33:28;3.50;73.40
71563;DHT22;59391;52.504;13.438;2024-01-15T02:35:54;3.50;74.00
71563;DHT22;59391;52.504;13.438;2024-01-15T02:38:20;3.50;72.70
71563;DHT22;59391;52.504;13.438;2024-01-15T02:40:46;3.50;73.20
71563;DHT22;59391;52.504;13.438;2024-01-15T02:43:12;3.50;73.40
71563;DHT22;59391;52.504;13.438;2024-01-15T02:45:39;3.60;72.90
71563;DHT22;59391;52.504;13.438;2024-01-15T02:48:04;3.60;73.00
71563;DHT22;59391;52.504;13.438;2024-01-15T02:50:30;3.60;71.40
71563;DHT22;59391;52.504;13.438;2024-01-15T02:52:56;3.50;70.50
71563;DHT22;59391;52.504;13.438;2024-01-15T02:55:22;3.50;71.20
71563;DHT22;59391;52.504;13.438;2024-01-15T02:57:47;3.50;70.90
71563;DHT22;59391;52.504;13.438;2024-01-15T03:00:13;3.60;70.90
71563;DHT22;59391;52.504;13.438;2024-01-15T03:02:39;3.60;70.90
71563;DHT22;59391;52.504;13.438;2024-01-15T03:05:07;3.50;71.00
71563;DHT22;59391;52.504;13.438;2024-01-15T03:07:33;3.50;70.20
71563;DHT22;59391;52.504;13.438;2024-01-15T03:09:59;3.50;69.80
71563;DHT22;59391;52.504;13.438;2024-01-15T03:12:24;3.50;71.00
71563;DHT22;59391;52.504;13.438;2024-01-15T03:14:50;3.50;72.00
71563;DHT22;59391;52.504;13.438;2024-01-15T03:17:16;3.60;71.00
71563;DHT22;59391;52.504;13.438;2024-01-15T03:19:41;3.60;70.60
71563;DHT22;59391;52.504;13.438;2024-01-15T03:22:07;3.60;68.80
71563;DHT22;59391;52.504;13.438;2024-01-15T03:24:34;3.60;68.90
71563;DHT22;59391;52.504;13.438;2024-01-15T03:27:00;3.60;68.50
71563;DHT22;59391;52.504;13.438;2024-01-15T03:29:26;3.60;69.70
71563;DHT22;59391;52.504;13.438;2024-01-15T03:31:52;3.70;69.10
71563;DHT22;59391;52.504;13.438;2024-01-15T03:34:18;3.70;69.20
71563;DHT22;59391;52.504;13.438;2024-01-15T03:36:44;3.70;69.00
71563;DHT22;59391;52.504;13.438;2024-01-15T03:39:09;3.70;68.90
71563;DHT22;59391;52.504;13.438;2024-01-15T03:41:35;3.70;67.60
71563;DHT22;59391;52.504;13.438;2024-01-15T03:44:01;3.70;67.80
71563;DHT22;59391;52.504;13.438;2024-01-15T03:46:27;3.70;68.90
71563;DHT22;59391;52.504;13.438;2024-01-15T03:48:52;3.80;67.70
71563;DHT22;59391;52.504;13.438;2024-01-15T03:51:18;3.80;67.50
71563;DHT22;59391;52.504;13.438;2024-01-15T03:53:44;3.70;67.20
71563;DHT22;59391;52.504;13.438;2024-01-15T03:56:10;3.80;67.90
71563;DHT22;59391;52.504;13.438;2024-01-15T03:58:35;3.80;67.60
71563;DHT22;59391;52.504;13.438;2024-01-15T04:01:01;3.80;67.00
71563;DHT22;59391;52.504;13.438;2024-01-15T04:03:27;3.80;67.40
71563;DHT22;59391;52.504;13.438;2024-01-15T04:05:52;3.80;67.40
71563;DHT22;59391;52.504;13.438;2024-01-15T04:08:18;3.80;67.60
71563;DHT22;59391;52.504;13.438;2024-01-15T04:10:43;3.80;67.30
71563;DHT22;59391;52.504;13.438;2024-01-15T04:13:09;3.80;67.90
71563;DHT22;59391;52.504;13.438;2024-01-15T04:15:35;3.80;67.30
71563;DHT22;59391;52.504;13.438;2024-01-15T04:18:02;3.70;67.30
71563;DHT22;59391;52.504;13.438;2024-01-15T04:20:28;3.70;67.10
71563;DHT22;59391;52.504;13.438;2024-01-15T04:22:54;3.70;67.10
71563;DHT22;59391;52.504;13.438;2024-01-15T04:25:19;3.70;67.10
71563;DHT22;59391;52.504;13.438;2024-01-15T04:27:45;3.70;66.60
71563;DHT22;59391;52.504;13.438;2024-01-15T04:30:11;3.70;66.80
71563;DHT22;59391;52.504;13.438;2024-01-15T04:32:37;3.80;67.10
71563;DHT22;59391;52.504;13.438;2024-01-15T04:35:02;3.70;66.50
71563;DHT22;59391;52.504;13.438;2024-01-15T04:37:28;3.70;66.50
71563;DHT22;59391;52.504;13.438;2024-01-15T04:39:54;3.80;66.00
71563;DHT22;59391;52.504;13.438;2024-01-15T04:42:21;3.80;66.20
71563;DHT22;59391;52.504;13.438;2024-01-15T04:44:47;3.80;66.60
71563;DHT22;59391;52.504;13.438;2024-01-15T04:47:13;3.90;65.80
71563;DHT22;59391;52.504;13.438;2024-01-15T04:49:38;3.90;65.50
71563;DHT22;59391;52.504;13.438;2024-01-15T04:52:04;3.90;65.10
71563;DHT22;59391;52.504;13.438;2024-01-15T04:54:29;3.90;64.90
71563;DHT22;59391;52.504;13.438;2024-01-15T04:56:55;3.90;64.70
71563;DHT22;59391;52.504;13.438;2024-01-15T04:59:21;4.00;65.10
71563;DHT22;59391;52.504;13.438;2024-01-15T05:01:46;4.00;65.20
71563;DHT22;59391;52.504;13.438;2024-01-15T05:04:12;4.00;64.70
71563;DHT22;59391;52.504;13.438;2024-01-15T05:06:38;4.00;63.90
71563;DHT22;59391;52.504;13.438;2024-01-15T05:09:03;4.00;63.40
71563;DHT22;59391;52.504;13.438;2024-01-15T05:11:29;4.00;63.80
71563;DHT22;59391;52.504;13.438;2024-01-15T05:13:55;4.00;63.90
71563;DHT22;59391;52.504;13.438;2024-01-15T05:16:21;4.00;63.30
71563;DHT22;59391;52.504;13.438;2024-01-15T05:18:46;4.00;63.60
71563;DHT22;59391;52.504;13.438;2024-01-15T05:21:12;4.00;63.50
71563;DHT22;59391;52.504;13.438;2024-01-15T05:23:38;4.10;64.40
71563;DHT22;59391;52.504;13.438;2024-01-15T05:26:04;4.10;64.00
71563;DHT22;59391;52.504;13.438;2024-01-15T05:28:29;4.10;64.40
71563;DHT22;59391;52.504;13.438;2024-01-15T05:30:55;4.10;64.80
71563;DHT22;59391;52.504;13.438;2024-01-15T05:33:23;4.20;64.50
71563;DHT22;59391;52.504;13.438;2024-01-15T05:35:49;4.20;64.30
71563;DHT22;59391;52.504;13.438;2024-01-15T05:38:16;4.20;64.30
71563;DHT22;59391;52.504;13.438;2024-01-15T05:40:42;4.20;64.30
71563;DHT22;59391;52.504;13.438;2024-01-15T05:43:07;4.20;64.20
71563;DHT22;59391;52.504;13.438;2024-01-15T05:45:34;4.20;63.70
71563;DHT22;59391;52.504;13.438;2024-01-15T05:48:01;4.20;63.90
71563;DHT22;59391;52.504;13.438;2024-01-15T05:50:26;4.20;63.80
71563;DHT22;59391;52.504;13.438;2024-01-15T05:52:52;4.20;63.60
71563;DHT22;59391;52.504;13.438;2024-01-15T05:55:18;4.10;63.60
71563;DHT22;59391;52.504;13.438;2024-01-15T05:57:44;4.20;63.80
71563;DHT22;59391;52.504;13.438;2024-01-15T06:00:11;4.20;64.20
71563;DHT22;59391;52.504;13.438;2024-01-15T06:02:38;4.20;64.70
71563;DHT22;59391;52.504;13.438;2024-01-15T06:05:04;4.10;66.20
71563;DHT22;59391;52.504;13.438;2024-01-15T06:07:31;4.10;66.60
71563;DHT22;59391;52.504;13.438;2024-01-15T06:09:58;4.10;66.70
71563;DHT22;59391;52.504;13.438;2024-01-15T06:12:24;4.00;66.80
71563;DHT22;59391;52.504;13.438;2024-01-15T06:14:50;4.10;67.70
71563;DHT22;59391;52.504;13.438;2024-01-15T06:17:16;4.10;67.90
71563;DHT22;59391;52.504;13.438;2024-01-15T06:19:41;4.00;66.20
71563;DHT22;59391;52.504;13.438;2024-01-15T06:22:07;4.00;65.80
71563;DHT22;59391;52.504;13.438;2024-01-15T06:24:32;4.00;66.40
71563;DHT22;59391;52.504;13.438;2024-01-15T06:26:59;4.00;66.60
71563;DHT22;59391;52.504;13.438;2024-01-15T06:29:25;4.00;66.10
71563;DHT22;59391;52.504;13.438;2024-01-15T06:31:54;4.00;66.40
71563;DHT22;59391;52.504;13.438;2024-01-15T06:34:20;4.10;66.30
71563;DHT22;59391;52.504;13.438;2024-01-15T06:36:45;4.10;66.90
71563;DHT22;59391;52.504;13.438;2024-01-15T06:39:11;4.10;66.10
71563;DHT22;59391;52.504;13.438;2024-01-15T06:41:37;4.10;65.90
71563;DHT22;59391;52.504;13.438;2024-01-15T06:44:11;4.10;65.70
71563;DHT22;59391;52.504;13.438;2024-01-15T06:46:44;4.10;66.10
71563;DHT22;59391;52.504;13.438;2024-01-15T06:49:11;4.10;66.20
71563;DHT22;59391;52.504;13.438;2024-01-15T06:51:37;4.20;66.50
71563;DHT22;59391;52.504;13.438;2024-01-15T06:54:03;4.10;65.80
71563;DHT22;59391;52.504;13.438;2024-01-15T06:56:29;4.10;65.60
71563;DHT22;59391;52.504;13.438;2024-01-15T06:58:56;4.10;65.50
71563;DHT22;59391;52.504;13.438;2024-01-15T07:01:22;4.10;66.00
71563;DHT22;59391;52.504;13.438;2024-01-15T07:03:47;4.10;65.50
71563;DHT22;59391;52.504;13.438;2024-01-15T07:06:13;4.10;65.20
71563;DHT22;59391;52.504;13.438;2024-01-15T07:08:40;4.10;64.70
71563;DHT22;59391;52.504;13.438;2024-01-15T07:11:06;4.10;65.40
71563;DHT22;59391;52.504;13.438;2024-01-15T07:13:32;4.10;64.80
71563;DHT22;59391;52.504;13.438;2024-01-15T07:15:58;4.10;64.60
71563;DHT22;59391;52.504;13.438;2024-01-15T07:18:24;4.20;65.00
71563;DHT22;59391;52.504;13.438;2024-01-15T07:20:50;4.10;65.10
71563;DHT22;59391;52.504;13.438;2024-01-15T07:23:16;4.20;65.40
71563;DHT22;59391;52.504;13.438;2024-01-15T07:25:43;4.30;65.40
71563;DHT22;59391;52.504;13.438;2024-01-15T07:28:08;4.30;64.80
71563;DHT22;59391;52.504;13.438;2024-01-15T07:30:34;4.40;64.40
71563;DHT22;59391;52.504;13.438;2024-01-15T07:33:00;4.40;64.50
71563;DHT22;59391;52.504;13.438;2024-01-15T07:35:26;4.40;64.30
71563;DHT22;59391;52.504;13.438;2024-01-15T07:43:48;4.50;64.00
71563;DHT22;59391;52.504;13.438;2024-01-15T07:46:14;4.50;62.30
71563;DHT22;59391;52.504;13.438;2024-01-15T07:48:39;4.50;63.00
71563;DHT22;59391;52.504;13.438;2024-01-15T07:51:05;4.60;62.90
71563;DHT22;59391;52.504;13.438;2024-01-15T07:53:31;4.60;63.50
71563;DHT22;59391;52.504;13.438;2024-01-15T07:55:56;4.60;62.80
71563;DHT22;59391;52.504;13.438;2024-01-15T07:58:22;4.60;63.30
71563;DHT22;59391;52.504;13.438;2024-01-15T08:00:48;4.70;62.80
71563;DHT22;59391;52.504;13.438;2024-01-15T08:03:13;4.70;63.10
71563;DHT22;59391;52.504;13.438;2024-01-15T08:05:40;4.70;62.50
71563;DHT22;59391;52.504;13.438;2024-01-15T08:08:06;4.70;63.40
71563;DHT22;59391;52.504;13.438;2024-01-15T08:10:31;4.70;62.30
71563;DHT22;59391;52.504;13.438;2024-01-15T08:12:57;4.80;62.40
71563;DHT22;59391;52.504;13.438;2024-01-15T08:15:22;4.60;61.30
71563;DHT22;59391;52.504;13.438;2024-01-15T08:17:48;4.70;61.90
71563;DHT22;59391;52.504;13.438;2024-01-15T08:20:13;4.70;61.40
71563;DHT22;59391;52.504;13.438;2024-01-15T08:22:41;4.70;61.70
71563;DHT22;59391;52.504;13.438;2024-01-15T08:25:07;4.70;61.90
71563;DHT22;59391;52.504;13.438;2024-01-15T08:27:34;4.70;61.70
71563;DHT22;59391;52.504;13.438;2024-01-15T08:29:59;4.70;62.00
71563;DHT22;59391;52.504;13.438;2024-01-15T08:32:25;4.70;61.80
71563;DHT22;59391;52.504;13.438;2024-01-15T08:34:50;4.70;61.80
71563;DHT22;59391;52.504;13.438;2024-01-15T08:37:17;4.70;61.80
71563;DHT22;59391;52.504;13.438;2024-01-15T08:39:44;4.70;61.50
71563;DHT22;59391;52.504;13.438;2024-01-15T08:42:09;4.70;62.20
71563;DHT22;59391;52.504;13.438;2024-01-15T08:44:36;4.80;61.40
71563;DHT22;59391;52.504;13.438;2024-01-15T08:47:02;4.80;61.30
71563;DHT22;59391;52.504;13.438;2024-01-15T08:49:28;4.70;61.40
71563;DHT22;59391;52.504;13.438;2024-01-15T08:51:53;4.70;61.50
71563;DHT22;59391;52.504;13.438;2024-01-15T08:54:19;4.80;61.80
71563;DHT22;59391;52.504;13.438;2024-01-15T08:56:45;4.80;61.60
71563;DHT22;59391;52.504;13.438;2024-01-15T08:59:11;4.80;61.10
71563;DHT22;59391;52.504;13.438;2024-01-15T09:01:38;4.80;60.70
71563;DHT22;59391;52.504;13.438;2024-01-15T09:04:04;4.70;61.00
71563;DHT22;59391;52.504;13.438;2024-01-15T09:06:30;4.70;61.50
71563;DHT22;59391;52.504;13.438;2024-01-15T09:08:55;4.70;61.50
71563;DHT22;59391;52.504;13.438;2024-01-15T09:11:21;4.80;61.50
71563;DHT22;59391;52.504;13.438;2024-01-15T09:13:47;4.80;61.90
71563;DHT22;59391;52.504;13.438;2024-01-15T09:16:12;4.80;61.80
71563;DHT22;59391;52.504;13.438;2024-01-15T09:18:38;4.80;61.40
71563;DHT22;59391;52.504;13.438;2024-01-15T09:21:03;4.80;61.90
71563;DHT22;59391;52.504;13.438;2024-01-15T09:23:30;4.90;62.20
71563;DHT22;59391;52.504;13.438;2024-01-15T09:25:56;4.90;62.50
71563;DHT22;59391;52.504;13.438;2024-01-15T09:28:21;4.90;61.80
71563;DHT22;59391;52.504;13.438;2024-01-15T09:30:48;4.80;61.50
71563;DHT22;59391;52.504;13.438;2024-01-15T09:33:13;4.90;61.80
71563;DHT22;59391;52.504;13.438;2024-01-15T09:35:39;4.90;62.40
71563;DHT22;59391;52.504;13.438;2024-01-15T09:38:05;4.90;61.80
71563;DHT22;59391;52.504;13.438;2024-01-15T09:40:31;4.90;62.20
71563;DHT22;59391;52.504;13.438;2024-01-15T09:43:00;4.90;60.60
71563;DHT22;59391;52.504;13.438;2024-01-15T09:45:27;4.80;61.20
71563;DHT22;59391;52.504;13.438;2024-01-15T09:47:52;4.80;61.10
71563;DHT22;59391;52.504;13.438;2024-01-15T09:50:18;4.90;61.50
71563;DHT22;59391;52.504;13.438;2024-01-15T09:52:44;4.90;61.20
71563;DHT22;59391;52.504;13.438;2024-01-15T09:55:11;4.90;60.80
71563;DHT22;59391;52.504;13.438;2024-01-15T09:57:39;5.00;61.10
71563;DHT22;59391;52.504;13.438;2024-01-15T10:00:05;5.00;61.40
71563;DHT22;59391;52.504;13.438;2024-01-15T10:02:33;5.10;62.10
71563;DHT22;59391;52.504;13.438;2024-01-15T10:05:00;5.10;61.40
71563;DHT22;59391;52.504;13.438;2024-01-15T10:07:26;5.10;60.60
71563;DHT22;59391;52.504;13.438;2024-01-15T10:09:53;5.10;61.20
71563;DHT22;59391;52.504;13.438;2024-01-15T10:12:20;5.00;60.70
71563;DHT22;59391;52.504;13.438;2024-01-15T10:14:47;5.10;60.90
71563;DHT22;59391;52.504;13.438;2024-01-15T10:17:14;5.10;61.40
71563;DHT22;59391;52.504;13.438;2024-01-15T10:19:40;5.10;61.20
71563;DHT22;59391;52.504;13.438;2024-01-15T10:22:10;5.20;60.50
71563;DHT22;59391;52.504;13.438;2024-01-15T10:24:36;5.10;61.00
71563;DHT22;59391;52.504;13.438;2024-01-15T10:27:10;5.20;60.80
71563;DHT22;59391;52.504;13.438;2024-01-15T10:29:36;5.20;60.70
71563;DHT22;59391;52.504;13.438;2024-01-15T10:32:03;5.20;60.50
71563;DHT22;59391;52.504;13.438;2024-01-15T10:34:32;5.30;61.30
71563;DHT22;59391;52.504;13.438;2024-01-15T10:36:58;5.30;59.80
71563;DHT22;59391;52.504;13.438;2024-01-15T10:39:24;5.30;60.10
71563;DHT22;59391;52.504;13.438;2024-01-15T10:41:50;5.30;60.30
71563;DHT22;59391;52.504;13.438;2024-01-15T10:44:17;5.30;60.20
71563;DHT22;59391;52.504;13.438;2024-01-15T10:46:45;5.30;60.40
71563;DHT22;59391;52.504;13.438;2024-01-15T10:49:14;5.40;59.90
71563;DHT22;59391;52.504;13.438;2024-01-15T10:51:41;5.40;59.70
71563;DHT22;59391;52.504;13.438;2024-01-15T10:54:09;5.40;60.20
71563;DHT22;59391;52.504;13.438;2024-01-15T10:56:37;5.40;59.90
71563;DHT22;59391;52.504;13.438;2024-01-15T10:59:03;5.40;59.30
71563;DHT22;59391;52.504;13.438;2024-01-15T11:01:30;5.40;59.20
71563;DHT22;59391;52.504;13.438;2024-01-15T11:03:56;5.40;59.60
71563;DHT22;59391;52.504;13.438;2024-01-15T11:06:24;5.40;59.80
71563;DHT22;59391;52.504;13.438;2024-01-15T11:08:52;5.40;59.40
71563;DHT22;59391;52.504;13.438;2024-01-15T11:11:18;5.40;58.60
71563;DHT22;59391;52.504;13.438;2024-01-15T11:13:49;5.40;59.20
71563;DHT22;59391;52.504;13.438;2024-01-15T11:16:17;5.50;59.20
71563;DHT22;59391;52.504;13.438;2024-01-15T11:19:01;5.50;59.10
71563;DHT22;59391;52.504;13.438;2024-01-15T11:21:28;5.60;59.20
71563;DHT22;59391;52.504;13.438;2024-01-15T11:24:01;5.60;59.30
71563;DHT22;59391;52.504;13.438;2024-01-15T11:26:37;5.60;58.90
71563;DHT22;59391;52.504;13.438;2024-01-15T11:29:28;5.70;58.70
71563;DHT22;59391;52.504;13.438;2024-01-15T11:37:17;5.50;59.60
71563;DHT22;59391;52.504;13.438;2024-01-15T11:39:44;5.50;59.50
71563;DHT22;59391;52.504;13.438;2024-01-15T11:42:12;5.50;59.70
71563;DHT22;59391;52.504;13.438;2024-01-15T11:44:39;5.50;59.90
71563;DHT22;59391;52.504;13.438;2024-01-15T11:47:10;5.40;60.50
71563;DHT22;59391;52.504;13.438;2024-01-15T11:50:03;5.40;60.70
71563;DHT22;59391;52.504;13.438;2024-01-15T11:52:38;5.40;61.00
71563;DHT22;59391;52.504;13.438;2024-01-15T11:58:02;5.30;61.80
71563;DHT22;59391;52.504;13.438;2024-01-15T12:00:33;5.30;62.50
71563;DHT22;59391;52.504;13.438;2024-01-15T12:02:59;5.20;63.20
71563;DHT22;59391;52.504;13.438;2024-01-15T12:05:24;5.20;63.80
71563;DHT22;59391;52.504;13.438;2024-01-15T12:07:50;5.10;64.00
71563;DHT22;59391;52.504;13.438;2024-01-15T12:10:18;5.00;64.00
71563;DHT22;59391;52.504;13.438;2024-01-15T12:13:15;4.90;64.40
71563;DHT22;59391;52.504;13.438;2024-01-15T12:15:43;4.90;64.80
71563;DHT22;59391;52.504;13.438;2024-01-15T12:18:12;4.90;65.70
71563;DHT22;59391;52.504;13.438;2024-01-15T12:20:40;4.90;65.60
71563;DHT22;59391;52.504;13.438;2024-01-15T12:23:07;4.80;66.30
71563;DHT22;59391;52.504;13.438;2024-01-15T12:25:34;4.80;66.30
71563;DHT22;59391;52.504;13.438;2024-01-15T12:28:01;4.80;65.60
71563;DHT22;59391;52.504;13.438;2024-01-15T12:30:27;4.70;65.30
71563;DHT22;59391;52.504;13.438;2024-01-15T12:32:57;4.60;65.60
71563;DHT22;59391;52.504;13.438;2024-01-15T12:35:24;4.60;65.30
71563;DHT22;59391;52.504;13.438;2024-01-15T12:37:54;4.70;66.20
71563;DHT22;59391;52.504;13.438;2024-01-15T12:40:20;4.70;66.40
71563;DHT22;59391;52.504;13.438;2024-01-15T12:42:47;4.70;66.70
71563;DHT22;59391;52.504;13.438;2024-01-15T12:45:13;4.80;66.40
71563;DHT22;59391;52.504;13.438;2024-01-15T12:47:39;4.70;65.70
71563;DHT22;59391;52.504;13.438;2024-01-15T12:50:10;4.70;66.30
71563;DHT22;59391;52.504;13.438;2024-01-15T12:52:37;4.60;66.60
71563;DHT22;59391;52.504;13.438;2024-01-15T12:55:07;4.60;66.80
71563;DHT22;59391;52.504;13.438;2024-01-15T12:57:37;4.60;67.20
71563;DHT22;59391;52.504;13.438;2024-01-15T13:00:04;4.60;67.20
71563;DHT22;59391;52.504;13.438;2024-01-15T13:02:41;4.50;68.00
71563;DHT22;59391;52.504;13.438;2024-01-15T13:05:10;4.40;67.60
71563;DHT22;59391;52.504;13.438;2024-01-15T13:07:36;4.40;68.40
71563;DHT22;59391;52.504;13.438;2024-01-15T13:10:03;4.30;68.30
71563;DHT22;59391;52.504;13.438;2024-01-15T13:12:29;4.30;68.00
71563;DHT22;59391;52.504;13.438;2024-01-15T13:14:54;4.30;68.40
71563;DHT22;59391;52.504;13.438;2024-01-15T13:17:21;4.30;69.10
71563;DHT22;59391;52.504;13.438;2024-01-15T13:19:47;4.30;69.30
71563;DHT22;59391;52.504;13.438;2024-01-15T13:22:13;4.30;68.80
71563;DHT22;59391;52.504;13.438;2024-01-15T13:24:39;4.40;68.50
71563;DHT22;59391;52.504;13.438;2024-01-15T13:27:05;4.40;67.80
71563;DHT22;59391;52.504;13.438;2024-01-15T13:29:32;4.30;68.80
71563;DHT22;59391;52.504;13.438;2024-01-15T13:31:58;4.40;68.00
71563;DHT22;59391;52.504;13.438;2024-01-15T13:34:24;4.40;68.40
71563;DHT22;59391;52.504;13.438;2024-01-15T13:36:50;4.40;67.70
71563;DHT22;59391;52.504;13.438;2024-01-15T13:39:15;4.40;66.70
71563;DHT22;59391;52.504;13.438;2024-01-15T13:41:46;4.40;68.10
71563;DHT22;59391;52.504;13.438;2024-01-15T13:44:11;4.50;68.60
71563;DHT22;59391;52.504;13.438;2024-01-15T13:46:37;4.50;67.90
71563;DHT22;59391;52.504;13.438;2024-01-15T13:49:03;4.50;67.20
71563;DHT22;59391;52.504;13.438;2024-01-15T13:51:31;4.50;68.20
71563;DHT22;59391;52.504;13.438;2024-01-15T13:53:57;4.50;67.60
71563;DHT22;59391;52.504;13.438;2024-01-15T13:56:23;4.40;68.40
71563;DHT22;59391;52.504;13.438;2024-01-15T13:58:49;4.40;67.60
71563;DHT22;59391;52.504;13.438;2024-01-15T14:01:15;4.40;67.60
71563;DHT22;59391;52.504;13.438;2024-01-15T14:03:43;4.30;68.50
71563;DHT22;59391;52.504;13.438;2024-01-15T14:06:09;4.40;67.60
71563;DHT22;59391;52.504;13.438;2024-01-15T14:08:35;4.40;68.50
71563;DHT22;59391;52.504;13.438;2024-01-15T14:11:02;4.40;66.30
71563;DHT22;59391;52.504;13.438;2024-01-15T14:13:32;4.40;67.00
71563;DHT22;59391;52.504;13.438;2024-01-15T14:15:58;4.40;67.60
71563;DHT22;59391;52.504;13.438;2024-01-15T14:18:27;4.50;67.00
71563;DHT22;59391;52.504;13.438;2024-01-15T14:20:53;4.50;66.80
71563;DHT22;59391;52.504;13.438;2024-01-15T14:23:19;4.40;64.80
71563;DHT22;59391;52.504;13.438;2024-01-15T14:25:46;4.40;65.40
71563;DHT22;59391;52.504;13.438;2024-01-15T14:28:11;4.50;65.80
71563;DHT22;59391;52.504;13.438;2024-01-15T14:30:37;4.50;65.50
71563;DHT22;59391;52.504;13.438;2024-01-15T14:33:02;4.50;65.60
71563;DHT22;59391;52.504;13.438;2024-01-15T14:35:28;4.50;65.70
71563;DHT22;59391;52.504;13.438;2024-01-15T14:37:54;4.50;64.70
71563;DHT22;59391;52.504;13.438;2024-01-15T14:40:19;4.50;65.50
71563;DHT22;59391;52.504;13.438;2024-01-15T14:42:45;4.60;65.30
71563;DHT22;59391;52.504;13.438;2024-01-15T14:45:10;4.60;65.30
71563;DHT22;59391;52.504;13.438;2024-01-15T14:47:39;4.60;64.00
71563;DHT22;59391;52.504;13.438;2024-01-15T14:50:07;4.60;64.10
71563;DHT22;59391;52.504;13.438;2024-01-15T14:52:33;4.50;64.10
71563;DHT22;59391;52.504;13.438;2024-01-15T14:55:00;4.50;63.90
71563;DHT22;59391;52.504;13.438;2024-01-15T14:57:26;4.50;64.50
71563;DHT22;59391;52.504;13.438;2024-01-15T14:59:51;4.50;62.60
71563;DHT22;59391;52.504;13.438;2024-01-15T15:02:17;4.40;62.30
71563;DHT22;59391;52.504;13.438;2024-01-15T15:04:44;4.30;62.80
71563;DHT22;59391;52.504;13.438;2024-01-15T15:07:09;4.40;63.10
71563;DHT22;59391;52.504;13.438;2024-01-15T15:09:38;4.40;62.90
71563;DHT22;59391;52.504;13.438;2024-01-15T15:12:04;4.30;63.40
71563;DHT22;59391;52.504;13.438;2024-01-15T15:14:31;4.40;63.30
71563;DHT22;59391;52.504;13.438;2024-01-15T15:16:57;4.40;63.60
71563;DHT22;59391;52.504;13.438;2024-01-15T15:19:23;4.40;63.90
71563;DHT22;59391;52.504;13.438;2024-01-15T15:21:49;4.50;62.80
71563;DHT22;59391;52.504;13.438;2024-01-15T15:24:14;4.40;63.00
71563;DHT22;59391;52.504;13.438;2024-01-15T15:26:40;4.50;63.50
71563;DHT22;59391;52.504;13.438;2024-01-15T15:29:05;4.40;63.20
71563;DHT22;59391;52.504;13.438;2024-01-15T15:31:31;4.40;63.00
71563;DHT22;59391;52.504;13.438;2024-01-15T15:33:56;4.40;63.60
71563;DHT22;59391;52.504;13.438;2024-01-15T15:36:22;4.30;63.10
71563;DHT22;59391;52.504;13.438;2024-01-15T15:38:48;4.30;63.70
71563;DHT22;59391;52.504;13.438;2024-01-15T15:41:14;4.30;63.60